Time;durP1;ratioP1;P1;durP2;ratioP2;P2;SDS_P1;SDS_P2;PMS_P1;PMS_P2;Temp;Humidity;BMP_temperature;BMP_pressure;BME280_temperature;BME280_humidity;BME280_pressure;Samples;Min_cycle;Max_cycle;Signal;HPM_P1;HPM_P2
2021/06/30 00:02:23;;;;;;;22.57;15.53;;;15.90;99.90;;;;;;4992334;28;20676;-63
2021/06/30 00:04:49;;;;;;;21.07;15.13;;;15.90;99.90;;;;;;4992307;28;20215;-63
2021/06/30 00:07:16;;;;;;;21.30;15.37;;;15.90;99.90;;;;;;4992262;28;20223;-63
2021/06/30 00:09:43;;;;;;;23.17;17.10;;;15.90;99.90;;;;;;4992294;28;20730;-63
2021/06/30 00:12:10;;;;;;;28.07;19.00;;;15.90;99.90;;;;;;4992491;28;20212;-63
2021/06/30 00:14:37;;;;;;;28.70;19.10;;;15.90;99.90;;;;;;4992319;28;20274;-63
2021/06/30 00:17:04;;;;;;;25.93;17.50;;;15.90;99.90;;;;;;4992250;28;20227;-63
2021/06/30 00:19:34;;;;;;;27.73;18.87;;;15.90;99.90;;;;;;4992357;28;20208;-63
2021/06/30 00:22:00;;;;;;;29.43;19.90;;;15.80;99.90;;;;;;4992272;28;20211;-62
2021/06/30 00:24:27;;;;;;;34.40;20.23;;;15.70;99.90;;;;;;4991983;28;20258;-63
2021/06/30 00:26:54;;;;;;;32.40;20.60;;;15.70;99.90;;;;;;4992362;28;20228;-63
2021/06/30 00:29:20;;;;;;;33.63;19.37;;;15.70;99.90;;;;;;4992379;28;20211;-63
2021/06/30 00:31:47;;;;;;;28.07;18.63;;;15.70;99.90;;;;;;4992233;28;20211;-63
2021/06/30 00:34:14;;;;;;;29.03;19.10;;;15.80;99.90;;;;;;4993515;28;20231;-63
2021/06/30 00:36:44;;;;;;;24.13;15.87;;;15.80;99.90;;;;;;4995827;28;20228;-63
2021/06/30 00:39:12;;;;;;;25.13;16.87;;;15.80;99.90;;;;;;4995680;28;20222;-63
2021/06/30 00:41:39;;;;;;;25.83;17.13;;;15.80;99.90;;;;;;4996090;28;20302;-63
2021/06/30 00:44:06;;;;;;;23.20;15.53;;;15.70;99.90;;;;;;4995757;28;20204;-63
2021/06/30 00:46:34;;;;;;;21.60;15.20;;;15.70;99.90;;;;;;4995745;28;20274;-63
2021/06/30 00:49:01;;;;;;;19.50;14.27;;;15.70;99.90;;;;;;4995591;28;20211;-63
2021/06/30 00:51:29;;;;;;;19.67;14.23;;;15.70;99.90;;;;;;4995594;28;20211;-63
2021/06/30 00:53:57;;;;;;;18.70;14.03;;;15.70;99.90;;;;;;4996649;28;20311;-63
2021/06/30 00:56:26;;;;;;;21.33;14.73;;;15.60;99.90;;;;;;4997177;28;20291;-63
2021/06/30 00:58:54;;;;;;;22.47;15.70;;;15.60;99.90;;;;;;4995698;28;20254;-62
2021/06/30 01:01:22;;;;;;;23.17;16.20;;;15.60;99.90;;;;;;4995674;28;20282;-63
2021/06/30 01:03:50;;;;;;;22.27;15.53;;;15.60;99.90;;;;;;4996945;28;20204;-63
2021/06/30 01:06:17;;;;;;;22.87;16.50;;;15.60;99.90;;;;;;4997042;28;20291;-64
2021/06/30 01:08:45;;;;;;;27.03;17.60;;;15.60;99.90;;;;;;4995865;28;20274;-63
2021/06/30 01:11:14;;;;;;;25.20;16.67;;;15.60;99.90;;;;;;4996130;28;20267;-63
2021/06/30 01:13:43;;;;;;;23.43;16.40;;;15.60;99.90;;;;;;4996255;28;20699;-63
2021/06/30 01:16:09;;;;;;;24.37;16.53;;;15.70;99.90;;;;;;4996571;28;20435;-63
2021/06/30 01:18:37;;;;;;;24.47;16.57;;;15.50;99.90;;;;;;4995132;28;20211;-64
2021/06/30 01:21:05;;;;;;;25.20;17.77;;;15.50;99.90;;;;;;4995028;28;20204;-64
2021/06/30 01:23:33;;;;;;;29.43;18.07;;;15.40;99.90;;;;;;4994824;28;20664;-64
2021/06/30 01:26:00;;;;;;;26.97;18.00;;;15.40;99.90;;;;;;4994953;28;20238;-64
2021/06/30 01:28:27;;;;;;;24.70;16.83;;;15.40;99.90;;;;;;4994976;28;20216;-63
2021/06/30 01:30:55;;;;;;;33.40;18.43;;;15.30;99.90;;;;;;4994862;28;20212;-63
2021/06/30 01:33:22;;;;;;;27.83;18.50;;;15.30;99.90;;;;;;4994798;28;20286;-63
2021/06/30 01:35:49;;;;;;;28.83;19.17;;;15.30;99.90;;;;;;4994904;28;20232;-63
2021/06/30 01:38:20;;;;;;;25.67;18.20;;;15.30;99.90;;;;;;4995287;28;20591;-62
2021/06/30 01:40:48;;;;;;;24.80;17.73;;;15.30;99.90;;;;;;4994871;28;20213;-63
2021/06/30 01:43:15;;;;;;;25.90;18.00;;;15.30;99.90;;;;;;4994692;28;20251;-64
2021/06/30 01:45:42;;;;;;;25.93;17.83;;;15.30;99.90;;;;;;4993647;28;20231;-63
2021/06/30 01:48:08;;;;;;;26.23;17.40;;;15.30;99.90;;;;;;4994874;28;20673;-63
2021/06/30 01:50:35;;;;;;;23.67;16.87;;;15.30;99.90;;;;;;4994744;28;20274;-63
2021/06/30 01:53:02;;;;;;;23.37;17.03;;;15.30;99.90;;;;;;4994414;28;20668;-63
2021/06/30 01:55:29;;;;;;;24.37;17.47;;;15.40;99.90;;;;;;4994125;28;20253;-63
2021/06/30 01:57:57;;;;;;;28.50;19.03;;;15.30;99.90;;;;;;4994375;28;20212;-63
2021/06/30 02:00:24;;;;;;;25.30;18.20;;;15.20;99.90;;;;;;4994314;28;20243;-63
2021/06/30 02:02:51;;;;;;;27.70;19.20;;;15.20;99.90;;;;;;4994219;28;20216;-63
2021/06/30 02:05:20;;;;;;;27.73;19.23;;;15.20;99.90;;;;;;4994191;28;20297;-63
2021/06/30 02:07:49;;;;;;;31.83;18.70;;;15.20;99.90;;;;;;4994520;28;20222;-63
2021/06/30 02:10:17;;;;;;;34.00;21.43;;;15.00;99.90;;;;;;4994047;28;20208;-63
2021/06/30 02:12:45;;;;;;;35.33;20.67;;;14.90;99.90;;;;;;4994047;28;20239;-63
2021/06/30 02:15:15;;;;;;;36.30;21.23;;;14.90;99.90;;;;;;4993970;28;20238;-63
2021/06/30 02:17:42;;;;;;;44.77;22.53;;;14.80;99.90;;;;;;4994125;28;20862;-63
2021/06/30 02:20:11;;;;;;;39.73;22.67;;;14.70;99.90;;;;;;4994099;28;20215;-63
2021/06/30 02:22:39;;;;;;;45.10;24.90;;;14.70;99.90;;;;;;4993923;28;20623;-63
2021/06/30 02:25:08;;;;;;;46.70;24.80;;;14.60;99.90;;;;;;4993542;28;20246;-63
2021/06/30 02:27:35;;;;;;;46.63;24.30;;;14.70;99.90;;;;;;4994181;28;20626;-63
2021/06/30 02:30:02;;;;;;;51.77;25.57;;;14.70;99.90;;;;;;4994061;28;20261;-63
2021/06/30 02:32:30;;;;;;;51.90;27.10;;;14.70;99.90;;;;;;4993867;28;20214;-63
2021/06/30 02:34:57;;;;;;;50.23;25.37;;;14.70;99.90;;;;;;4993520;28;20642;-63
2021/06/30 02:37:24;;;;;;;52.83;26.60;;;14.80;99.90;;;;;;4993720;28;20214;-64
2021/06/30 02:39:50;;;;;;;55.27;25.93;;;14.80;99.90;;;;;;4993401;28;20268;-63
2021/06/30 02:42:17;;;;;;;50.13;26.97;;;14.80;99.90;;;;;;4993763;28;20215;-64
2021/06/30 02:44:44;;;;;;;48.87;26.80;;;14.80;99.90;;;;;;4993799;28;20202;-63
2021/06/30 02:47:10;;;;;;;48.07;24.50;;;14.80;99.90;;;;;;4993889;28;20853;-63
2021/06/30 02:49:38;;;;;;;42.63;24.50;;;14.80;99.90;;;;;;4994164;28;20214;-63
2021/06/30 02:52:05;;;;;;;45.10;23.60;;;14.80;99.90;;;;;;4993910;28;20218;-63
2021/06/30 02:54:32;;;;;;;42.87;24.10;;;14.80;99.90;;;;;;4993506;28;20231;-63
2021/06/30 02:56:59;;;;;;;45.07;23.67;;;14.80;99.90;;;;;;4993825;28;20230;-63
2021/06/30 02:59:25;;;;;;;43.43;24.53;;;14.80;99.90;;;;;;4993485;28;20679;-63
2021/06/30 03:01:52;;;;;;;42.87;23.33;;;14.90;99.90;;;;;;4993796;28;20215;-63
2021/06/30 03:04:19;;;;;;;44.10;23.67;;;14.90;99.90;;;;;;4993662;28;20203;-63
2021/06/30 03:06:46;;;;;;;43.17;24.30;;;14.90;99.90;;;;;;4993447;28;20231;-63
2021/06/30 03:09:13;;;;;;;43.27;23.80;;;14.90;99.90;;;;;;4993059;28;20224;-63
2021/06/30 03:11:41;;;;;;;41.23;22.10;;;15.00;99.90;;;;;;4992968;28;20211;-63
2021/06/30 03:14:07;;;;;;;38.40;21.00;;;15.00;99.90;;;;;;4993067;28;20223;-63
2021/06/30 03:16:34;;;;;;;35.07;20.07;;;15.00;99.90;;;;;;4992852;28;20283;-63
2021/06/30 03:19:01;;;;;;;35.20;20.57;;;14.90;99.90;;;;;;4992972;28;20218;-63
2021/06/30 03:21:27;;;;;;;40.37;21.37;;;14.90;99.90;;;;;;4992709;28;20211;-64
2021/06/30 03:23:55;;;;;;;38.13;21.93;;;14.80;99.90;;;;;;4992998;28;20235;-64
2021/06/30 03:26:22;;;;;;;43.33;22.80;;;14.80;99.90;;;;;;4992811;28;20232;-64
2021/06/30 03:28:48;;;;;;;42.80;22.73;;;14.80;99.90;;;;;;4993058;28;20219;-65
2021/06/30 03:31:15;;;;;;;45.40;23.47;;;14.80;99.90;;;;;;4992851;28;20203;-65
2021/06/30 03:33:43;;;;;;;49.37;24.77;;;14.70;99.90;;;;;;4992527;28;20285;-63
2021/06/30 03:36:10;;;;;;;46.70;24.40;;;14.70;99.90;;;;;;4992356;28;20229;-65
2021/06/30 03:38:36;;;;;;;48.40;24.60;;;14.70;99.90;;;;;;4992720;28;20254;-65
2021/06/30 03:41:05;;;;;;;47.57;24.30;;;14.70;99.90;;;;;;4993122;28;20261;-62
2021/06/30 03:43:31;;;;;;;47.37;23.97;;;14.70;99.90;;;;;;4992583;28;20219;-62
2021/06/30 03:45:58;;;;;;;46.47;22.17;;;14.80;99.90;;;;;;4992722;28;20715;-62
2021/06/30 03:48:24;;;;;;;40.83;21.97;;;14.80;99.90;;;;;;4992746;28;20214;-62
2021/06/30 03:50:51;;;;;;;37.47;22.67;;;14.70;99.90;;;;;;4992351;28;20725;-62
2021/06/30 03:53:18;;;;;;;39.93;20.50;;;14.80;99.90;;;;;;4994759;28;20211;-63
2021/06/30 03:55:44;;;;;;;40.53;22.23;;;14.80;99.90;;;;;;5009501;28;20239;-63
2021/06/30 03:58:12;;;;;;;39.20;21.97;;;14.80;99.90;;;;;;4997808;28;20278;-62
2021/06/30 04:00:39;;;;;;;34.77;21.07;;;14.80;99.90;;;;;;4993404;28;20691;-63
2021/06/30 04:03:05;;;;;;;36.03;20.33;;;14.90;99.90;;;;;;4993214;28;20268;-62
2021/06/30 04:05:32;;;;;;;36.27;20.07;;;14.90;99.90;;;;;;4993245;28;20240;-62
2021/06/30 04:07:59;;;;;;;34.63;20.73;;;14.80;99.90;;;;;;4991552;28;20219;-63
2021/06/30 04:10:25;;;;;;;39.80;21.57;;;14.80;99.90;;;;;;4995389;28;20633;-62
2021/06/30 04:12:52;;;;;;;35.90;20.33;;;14.90;99.90;;;;;;4983949;28;20212;-63
2021/06/30 04:15:20;;;;;;;35.67;21.30;;;14.90;99.90;;;;;;4988783;28;20853;-65
2021/06/30 04:17:47;;;;;;;35.10;19.97;;;14.90;99.90;;;;;;4975906;28;20208;-62
2021/06/30 04:20:13;;;;;;;34.33;19.40;;;14.90;99.90;;;;;;4976430;28;20208;-62
2021/06/30 04:22:40;;;;;;;34.53;21.13;;;14.90;99.90;;;;;;4976683;28;20289;-62
2021/06/30 04:25:08;;;;;;;33.83;20.07;;;14.90;99.90;;;;;;4976407;28;20232;-62
2021/06/30 04:27:35;;;;;;;32.20;19.50;;;15.00;99.90;;;;;;4976501;28;20306;-63
2021/06/30 04:30:06;;;;;;;29.33;18.30;;;15.00;99.90;;;;;;4976382;28;20208;-63
2021/06/30 04:32:34;;;;;;;33.67;19.90;;;14.90;99.90;;;;;;4976463;28;20806;-63
2021/06/30 04:35:01;;;;;;;35.47;19.83;;;14.90;99.90;;;;;;4976120;28;20232;-63
2021/06/30 04:37:28;;;;;;;35.63;20.67;;;14.90;99.90;;;;;;4976370;28;20212;-63
2021/06/30 04:39:54;;;;;;;37.53;20.47;;;14.90;99.90;;;;;;4976257;28;20212;-63
2021/06/30 04:42:21;;;;;;;28.73;19.07;;;15.00;99.90;;;;;;4976120;28;20217;-63
2021/06/30 04:44:48;;;;;;;31.33;20.43;;;15.00;99.90;;;;;;4975797;28;20208;-64
2021/06/30 04:47:14;;;;;;;31.57;19.77;;;15.00;99.90;;;;;;4976324;28;20273;-63
2021/06/30 04:49:42;;;;;;;33.13;19.80;;;15.00;99.90;;;;;;4976135;28;20215;-63
2021/06/30 04:52:09;;;;;;;26.37;18.57;;;15.00;99.90;;;;;;4976206;28;20678;-63
2021/06/30 04:54:36;;;;;;;28.57;18.03;;;15.00;99.90;;;;;;4975665;28;20227;-63
2021/06/30 04:57:03;;;;;;;25.87;18.73;;;15.10;99.90;;;;;;4975854;28;20715;-64
2021/06/30 04:59:29;;;;;;;26.30;17.80;;;15.10;99.90;;;;;;4975703;28;20212;-63
2021/06/30 05:01:56;;;;;;;28.53;18.40;;;15.10;99.90;;;;;;4976614;28;20204;-63
2021/06/30 05:04:23;;;;;;;33.70;19.97;;;15.20;99.90;;;;;;4976078;28;20243;-63
2021/06/30 05:06:51;;;;;;;26.77;18.70;;;15.30;99.90;;;;;;4981318;28;20228;-64
2021/06/30 05:09:17;;;;;;;26.80;19.43;;;15.30;99.90;;;;;;4980736;28;20224;-63
2021/06/30 05:11:44;;;;;;;26.77;17.00;;;15.30;99.90;;;;;;4975801;28;20283;-63
2021/06/30 05:14:10;;;;;;;25.77;16.43;;;15.30;31.50;;;;;;4975445;28;20677;-63
2021/06/30 05:16:38;;;;;;;21.27;15.10;;;15.40;1.00;;;;;;4990936;28;20228;-64
2021/06/30 05:19:05;;;;;;;21.83;15.33;;;15.30;1.00;;;;;;4992659;28;20243;-64
2021/06/30 05:21:32;;;;;;;25.33;15.43;;;15.30;1.00;;;;;;4985074;28;20270;-61
2021/06/30 05:24:00;;;;;;;19.50;13.03;;;15.30;99.90;;;;;;4980074;28;20212;-63
2021/06/30 05:26:26;;;;;;;20.63;13.57;;;15.30;99.90;;;;;;4976863;28;20235;-63
2021/06/30 05:28:53;;;;;;;15.40;11.47;;;15.30;99.90;;;;;;4973887;28;20215;-62
2021/06/30 05:31:20;;;;;;;17.23;11.03;;;15.30;99.90;;;;;;4972232;28;20212;-63
2021/06/30 05:33:46;;;;;;;17.73;11.80;;;15.30;26.20;;;;;;4974647;28;20577;-62
2021/06/30 05:36:13;;;;;;;15.40;11.33;;;15.30;99.90;;;;;;4974903;28;20239;-62
2021/06/30 05:38:39;;;;;;;14.70;10.67;;;15.40;99.90;;;;;;4974823;28;20208;-61
2021/06/30 05:41:07;;;;;;;18.67;11.53;;;15.30;1.00;;;;;;4974611;28;20208;-62
2021/06/30 05:43:36;;;;;;;13.73;9.50;;;15.40;99.90;;;;;;4974737;28;20259;-62
2021/06/30 05:46:03;;;;;;;13.33;9.30;;;15.40;99.90;;;;;;4974860;28;20259;-61
2021/06/30 05:48:31;;;;;;;17.23;8.63;;;15.50;1.00;;;;;;4974931;28;20212;-62
2021/06/30 05:50:57;;;;;;;15.07;8.40;;;15.60;99.90;;;;;;4974706;28;20213;-63
2021/06/30 05:53:24;;;;;;;11.67;8.77;;;15.70;99.90;;;;;;4974419;28;20212;-62
2021/06/30 05:55:51;;;;;;;9.63;7.33;;;15.80;99.90;;;;;;4974817;28;20244;-60
2021/06/30 05:58:19;;;;;;;10.37;7.27;;;15.90;99.90;;;;;;4976680;28;20212;-61
2021/06/30 06:00:46;;;;;;;11.30;7.23;;;16.00;1.00;;;;;;4974793;28;20208;-63
2021/06/30 06:03:12;;;;;;;15.83;7.63;;;16.00;99.90;;;;;;4974386;28;20271;-62
2021/06/30 06:05:39;;;;;;;6.93;6.20;;;16.10;16.30;;;;;;4974366;28;20224;-63
2021/06/30 06:08:06;;;;;;;9.13;6.30;;;16.20;99.90;;;;;;4974208;28;20216;-61
2021/06/30 06:10:33;;;;;;;11.13;6.07;;;16.30;99.90;;;;;;4974435;28;20208;-61
2021/06/30 06:13:00;;;;;;;7.27;4.90;;;16.40;99.90;;;;;;4974009;28;20677;-61
2021/06/30 06:15:28;;;;;;;6.07;4.43;;;16.50;1.00;;;;;;4974194;28;20640;-64
2021/06/30 06:17:55;;;;;;;7.67;4.20;;;16.60;99.90;;;;;;4974126;28;20243;-64
2021/06/30 06:20:21;;;;;;;5.43;4.20;;;16.70;99.90;;;;;;4973857;28;20204;-64
2021/06/30 06:22:48;;;;;;;5.03;3.70;;;16.70;1.00;;;;;;4973721;28;20825;-63
2021/06/30 06:25:15;;;;;;;5.60;3.63;;;16.90;1.00;;;;;;4974095;28;20283;-63
2021/06/30 06:27:41;;;;;;;6.07;3.97;;;17.00;99.90;;;;;;4974080;28;20211;-61
2021/06/30 06:30:10;;;;;;;6.93;4.00;;;17.00;99.90;;;;;;4974274;28;20215;-63
2021/06/30 06:32:38;;;;;;;4.13;3.73;;;17.00;1.00;;;;;;4973650;28;20208;-62
2021/06/30 06:35:06;;;;;;;5.07;4.10;;;17.00;99.90;;;;;;4973470;28;20236;-62
2021/06/30 06:37:33;;;;;;;4.93;3.77;;;17.00;98.80;;;;;;4973740;28;20208;-62
2021/06/30 06:40:00;;;;;;;4.60;3.90;;;17.00;1.00;;;;;;4973971;28;20208;-63
2021/06/30 06:42:26;;;;;;;5.83;4.33;;;17.00;73.70;;;;;;4973901;28;20208;-63
2021/06/30 06:44:53;;;;;;;6.60;4.37;;;17.00;1.00;;;;;;4972937;28;20677;-63
2021/06/30 06:47:20;;;;;;;5.13;4.20;;;16.90;99.90;;;;;;4974047;28;20214;-61
2021/06/30 06:49:47;;;;;;;11.03;5.03;;;16.80;99.90;;;;;;4974629;28;20259;-61
2021/06/30 06:52:14;;;;;;;8.33;6.13;;;16.70;99.90;;;;;;4975051;28;20216;-62
2021/06/30 06:54:41;;;;;;;6.30;5.67;;;16.80;1.00;;;;;;4974816;28;20207;-62
2021/06/30 06:57:07;;;;;;;8.07;5.40;;;16.80;1.00;;;;;;4974159;28;20212;-62
2021/06/30 06:59:34;;;;;;;7.30;5.23;;;16.80;99.90;;;;;;4973735;28;20208;-62
2021/06/30 07:02:01;;;;;;;6.47;5.80;;;16.90;57.00;;;;;;4973359;28;20692;-63
2021/06/30 07:04:28;;;;;;;7.57;6.00;;;16.90;11.30;;;;;;4973062;28;20205;-62
2021/06/30 07:06:56;;;;;;;7.70;5.93;;;17.00;99.90;;;;;;4974665;28;20633;-62
2021/06/30 07:09:22;;;;;;;7.20;6.00;;;17.00;99.90;;;;;;4974314;28;20208;-62
2021/06/30 07:11:51;;;;;;;8.63;5.87;;;17.00;35.20;;;;;;4974496;28;20214;-62
2021/06/30 07:14:18;;;;;;;6.43;5.40;;;17.20;99.90;;;;;;4973550;28;20208;-63
2021/06/30 07:16:45;;;;;;;6.17;5.37;;;17.20;99.90;;;;;;4972573;28;20909;-62
2021/06/30 07:19:11;;;;;;;5.83;5.23;;;17.30;99.90;;;;;;4972835;28;20689;-63
2021/06/30 07:21:38;;;;;;;6.87;5.73;;;17.30;99.90;;;;;;4973152;28;20209;-63
2021/06/30 07:24:07;;;;;;;5.97;5.43;;;17.50;99.90;;;;;;4972759;28;20283;-62
2021/06/30 07:26:34;;;;;;;7.97;5.17;;;17.60;1.00;;;;;;4972924;28;20828;-63
2021/06/30 07:29:01;;;;;;;7.57;5.57;;;17.70;53.10;;;;;;4973001;28;20275;-64
2021/06/30 07:31:27;;;;;;;8.03;6.03;;;18.00;99.90;;;;;;4972868;28;20240;-63
2021/06/30 07:33:54;;;;;;;6.77;6.17;;;18.10;1.00;;;;;;4974815;28;20212;-61
2021/06/30 07:36:21;;;;;;;7.13;5.53;;;18.20;42.00;;;;;;4992232;28;20274;-61
2021/06/30 07:38:48;;;;;;;6.60;5.90;;;18.30;99.90;;;;;;4992229;28;20657;-61
2021/06/30 07:41:15;;;;;;;5.97;5.37;;;18.30;99.90;;;;;;4992300;28;20816;-61
2021/06/30 07:43:42;;;;;;;6.87;6.27;;;18.30;99.90;;;;;;4991128;28;20211;-61
2021/06/30 07:46:09;;;;;;;8.93;6.17;;;18.40;99.90;;;;;;4991820;28;20273;-61
2021/06/30 07:48:35;;;;;;;7.10;6.23;;;18.60;1.00;;;;;;4992411;28;20215;-61
2021/06/30 07:51:02;;;;;;;7.40;6.30;;;18.80;99.90;;;;;;4992218;28;20258;-61
2021/06/30 07:53:29;;;;;;;6.47;5.87;;;18.80;1.00;;;;;;4991775;28;20285;-61
2021/06/30 07:55:55;;;;;;;5.63;5.13;;;18.90;8.90;;;;;;4992053;28;20274;-63
2021/06/30 07:58:24;;;;;;;6.93;6.23;;;19.00;99.90;;;;;;4992122;28;20207;-62
2021/06/30 08:00:50;;;;;;;6.57;5.90;;;18.70;1.00;;;;;;4992006;28;20211;-63
2021/06/30 08:03:17;;;;;;;6.23;5.70;;;18.80;99.90;;;;;;4991845;28;20262;-62
2021/06/30 08:05:44;;;;;;;6.67;5.50;;;18.60;99.90;;;;;;4992054;28;20223;-63
2021/06/30 08:08:10;;;;;;;5.97;5.33;;;18.60;99.90;;;;;;4992023;28;20257;-62
2021/06/30 08:10:37;;;;;;;5.53;4.57;;;18.60;99.90;;;;;;4977219;28;20262;-61
2021/06/30 08:13:04;;;;;;;5.00;4.60;;;18.60;99.90;;;;;;4972182;28;20594;-63
2021/06/30 08:15:32;;;;;;;5.93;5.27;;;18.30;99.90;;;;;;4972193;28;20236;-62
2021/06/30 08:17:58;;;;;;;5.93;5.33;;;18.20;99.90;;;;;;4972452;28;20208;-63
2021/06/30 08:20:25;;;;;;;6.30;4.93;;;18.10;1.00;;;;;;4972587;28;20263;-62
2021/06/30 08:22:51;;;;;;;6.43;4.97;;;18.30;99.90;;;;;;4972337;28;20220;-63
2021/06/30 08:25:19;;;;;;;6.30;4.87;;;18.70;99.90;;;;;;4972074;28;20234;-62
2021/06/30 08:27:46;;;;;;;5.37;4.87;;;19.10;85.20;;;;;;4972152;28;20208;-61
2021/06/30 08:30:13;;;;;;;5.10;4.60;;;19.30;99.90;;;;;;4972491;28;20677;-61
2021/06/30 08:32:43;;;;;;;5.30;4.80;;;19.40;99.90;;;;;;4972222;28;20208;-62
2021/06/30 08:35:11;;;;;;;5.23;4.50;;;19.40;99.90;;;;;;4972206;28;20228;-59
2021/06/30 08:37:41;;;;;;;6.20;4.50;;;19.40;99.90;;;;;;4972179;28;20209;-62
2021/06/30 08:40:10;;;;;;;5.63;4.60;;;19.70;99.90;;;;;;4972387;28;20219;-65
2021/06/30 08:42:37;;;;;;;6.93;4.60;;;19.90;99.90;;;;;;4972280;28;20220;-62
2021/06/30 08:45:04;;;;;;;6.03;4.07;;;19.90;65.40;;;;;;4972227;28;20279;-63
2021/06/30 08:47:35;;;;;;;6.90;4.23;;;19.90;10.60;;;;;;4972301;28;20731;-61
2021/06/30 08:50:05;;;;;;;5.57;4.60;;;19.80;2.30;;;;;;4972461;28;20296;-58
2021/06/30 08:52:34;;;;;;;4.10;3.63;;;19.80;99.90;;;;;;4972094;28;20303;-60
2021/06/30 08:55:02;;;;;;;5.20;4.10;;;19.60;99.90;;;;;;4972626;28;20879;-61
2021/06/30 08:57:29;;;;;;;7.40;4.90;;;19.30;99.90;;;;;;4975800;28;20224;-64
2021/06/30 08:59:57;;;;;;;5.73;4.80;;;18.90;99.90;;;;;;4975807;28;20274;-60
2021/06/30 09:02:24;;;;;;;4.50;4.10;;;18.70;99.90;;;;;;4975718;28;20216;-60
2021/06/30 09:04:59;;;;;;;5.03;4.17;;;18.80;99.90;;;;;;4975068;28;20216;-61
2021/06/30 09:07:27;;;;;;;5.90;4.00;;;19.00;99.90;;;;;;4975232;28;20306;-59
2021/06/30 09:09:54;;;;;;;4.00;3.50;;;19.10;99.90;;;;;;4974889;28;20208;-58
2021/06/30 09:12:36;;;;;;;7.20;3.77;;;18.90;99.90;;;;;;4975370;28;20244;-63
2021/06/30 09:15:14;;;;;;;4.47;3.87;;;18.80;99.90;;;;;;4975257;28;20331;-63
2021/06/30 09:17:41;;;;;;;3.87;3.50;;;19.00;1.00;;;;;;4981386;28;20302;-62
2021/06/30 09:20:09;;;;;;;4.63;3.13;;;19.30;1.00;;;;;;4981663;28;20692;-58
2021/06/30 09:22:43;;;;;;;3.40;3.10;;;19.60;99.90;;;;;;4976146;28;20215;-60
2021/06/30 09:25:24;;;;;;;4.20;2.77;;;19.90;99.90;;;;;;4978302;28;20335;-62
2021/06/30 09:27:51;;;;;;;3.77;3.30;;;19.90;1.00;;;;;;4979943;28;20239;-62
2021/06/30 09:30:18;;;;;;;4.57;3.03;;;19.70;1.00;;;;;;4978765;28;20208;-62
2021/06/30 09:33:04;;;;;;;5.60;2.87;;;19.50;1.00;;;;;;4975026;28;20231;-61
2021/06/30 09:35:32;;;;;;;4.47;2.50;;;19.30;1.00;;;;;;4974441;28;20243;-61
2021/06/30 09:38:20;;;;;;;3.33;3.03;;;19.20;85.30;;;;;;4975201;28;20238;-60
2021/06/30 09:40:47;;;;;;;3.67;3.00;;;19.30;9.80;;;;;;4975081;28;20628;-61
2021/06/30 09:43:25;;;;;;;3.83;2.80;;;19.60;99.90;;;;;;4974836;28;20213;-60
2021/06/30 09:45:53;;;;;;;2.97;2.50;;;20.00;98.70;;;;;;4974798;28;20224;-61
2021/06/30 09:48:32;;;;;;;2.30;2.03;;;20.30;1.00;;;;;;4974305;28;20561;-59
2021/06/30 09:51:00;;;;;;;2.13;1.90;;;20.00;1.00;;;;;;4974498;28;20296;-61
2021/06/30 09:53:42;;;;;;;5.57;2.20;;;19.70;1.00;;;;;;4974591;28;20212;-60
2021/06/30 09:56:10;;;;;;;2.00;1.80;;;19.80;10.20;;;;;;4974653;28;20224;-60
2021/06/30 09:58:37;;;;;;;2.30;1.80;;;19.90;1.00;;;;;;4974839;28;20204;-61
2021/06/30 10:01:18;;;;;;;2.00;1.80;;;19.90;1.00;;;;;;4974544;28;20719;-64
2021/06/30 10:03:45;;;;;;;1.80;1.53;;;19.90;1.00;;;;;;4973905;28;20223;-62
2021/06/30 10:06:29;;;;;;;1.70;1.60;;;20.00;1.00;;;;;;4973786;28;20232;-62
2021/06/30 10:08:58;;;;;;;2.13;1.37;;;20.20;1.00;;;;;;4974252;28;20223;-64
2021/06/30 10:11:26;;;;;;;2.33;1.90;;;19.90;1.00;;;;;;4974487;28;20262;-63
2021/06/30 10:13:53;;;;;;;2.10;1.90;;;19.70;1.00;;;;;;4973746;28;20232;-63
2021/06/30 10:16:21;;;;;;;1.50;1.20;;;19.60;1.00;;;;;;4974363;28;20303;-65
2021/06/30 10:18:50;;;;;;;1.80;1.50;;;19.50;1.00;;;;;;4974367;28;20212;-62
2021/06/30 10:21:18;;;;;;;1.53;1.10;;;19.40;1.00;;;;;;4973794;28;20208;-62
2021/06/30 10:23:45;;;;;;;2.10;1.50;;;19.40;1.00;;;;;;4973602;28;20205;-62
2021/06/30 10:26:15;;;;;;;1.13;1.00;;;19.50;1.00;;;;;;4973942;28;20314;-63
2021/06/30 10:28:42;;;;;;;2.00;1.60;;;19.50;1.00;;;;;;4973878;28;20208;-62
2021/06/30 10:31:09;;;;;;;1.90;1.50;;;19.50;1.00;;;;;;4973965;28;20719;-62
2021/06/30 10:33:40;;;;;;;2.10;1.73;;;19.60;1.00;;;;;;4973546;28;20208;-64
2021/06/30 10:36:08;;;;;;;2.30;1.70;;;19.70;1.00;;;;;;4973965;28;20236;-65
2021/06/30 10:38:54;;;;;;;2.33;1.60;;;19.70;1.00;;;;;;4974255;28;20381;-64
2021/06/30 10:41:42;;;;;;;1.87;1.30;;;19.70;1.00;;;;;;4974088;28;20212;-63
2021/06/30 10:44:14;;;;;;;1.63;1.50;;;19.70;1.00;;;;;;4974144;28;20255;-62
2021/06/30 10:46:42;;;;;;;1.63;1.30;;;19.40;1.00;;;;;;4974176;28;20278;-65
2021/06/30 10:49:20;;;;;;;3.87;1.47;;;19.40;1.00;;;;;;4974712;28;20208;-59
2021/06/30 10:51:48;;;;;;;2.67;1.40;;;19.20;1.00;;;;;;4973837;28;20212;-61
2021/06/30 10:54:42;;;;;;;2.07;1.30;;;18.90;1.00;;;;;;4973189;28;20294;-61
2021/06/30 10:57:27;;;;;;;3.10;1.33;;;18.90;1.00;;;;;;4973739;28;20224;-61
2021/06/30 11:00:12;;;;;;;3.10;1.80;;;19.00;1.00;;;;;;4973273;28;20231;-61
2021/06/30 11:02:39;;;;;;;2.57;1.63;;;19.10;1.00;;;;;;4973322;28;20413;-61
2021/06/30 11:05:35;;;;;;;3.50;1.60;;;19.00;1.00;;;;;;4973122;28;20633;-61
2021/06/30 11:08:02;;;;;;;2.17;1.60;;;19.20;1.00;;;;;;4973285;28;20267;-61
2021/06/30 11:10:48;;;;;;;1.90;1.30;;;19.30;1.00;;;;;;4973448;28;20216;-60
2021/06/30 11:13:16;;;;;;;2.00;1.80;;;19.50;1.00;;;;;;4973033;28;20291;-60
2021/06/30 11:15:44;;;;;;;2.27;1.90;;;19.40;1.00;;;;;;4972736;28;20236;-60
2021/06/30 11:18:43;;;;;;;1.70;1.50;;;19.30;1.00;;;;;;4973175;28;20228;-58
2021/06/30 11:21:11;;;;;;;1.50;1.40;;;19.20;1.00;;;;;;4973235;28;20291;-60
2021/06/30 11:23:43;;;;;;;2.07;1.30;;;19.00;1.00;;;;;;4972749;28;20607;-59
2021/06/30 11:26:37;;;;;;;1.40;1.10;;;18.60;1.00;;;;;;4972918;28;20267;-59
2021/06/30 11:29:42;;;;;;;1.80;1.43;;;18.60;1.00;;;;;;4939486;28;20217;-63
2021/06/30 11:32:12;;;;;;;1.87;1.63;;;18.60;1.00;;;;;;4972881;28;20592;-63
2021/06/30 11:34:39;;;;;;;2.00;1.50;;;18.50;1.00;;;;;;4972792;28;20212;-62
2021/06/30 11:37:06;;;;;;;2.87;1.77;;;18.50;1.00;;;;;;4972599;28;20291;-62
2021/06/30 11:39:34;;;;;;;2.23;1.80;;;18.50;9.50;;;;;;4972675;28;20677;-61
2021/06/30 11:42:02;;;;;;;2.30;1.50;;;18.60;1.00;;;;;;4972986;28;20208;-61
2021/06/30 11:44:36;;;;;;;1.47;1.37;;;18.70;1.00;;;;;;4972572;28;20266;-61
2021/06/30 11:47:05;;;;;;;2.33;1.27;;;18.70;1.00;;;;;;4972690;28;20229;-62
2021/06/30 11:49:34;;;;;;;2.60;1.40;;;18.60;1.00;;;;;;4972841;28;20204;-62
2021/06/30 11:52:02;;;;;;;1.80;1.50;;;18.70;1.00;;;;;;4972664;28;20212;-62
2021/06/30 11:54:29;;;;;;;2.10;1.57;;;18.90;1.00;;;;;;4972414;28;20621;-62
2021/06/30 11:56:57;;;;;;;2.60;1.63;;;18.90;1.00;;;;;;4972809;28;20283;-62
2021/06/30 11:59:25;;;;;;;1.40;1.20;;;19.00;1.00;;;;;;4972666;28;20256;-62
2021/06/30 12:01:53;;;;;;;1.77;1.60;;;19.00;1.00;;;;;;4972715;28;20244;-61
2021/06/30 12:04:22;;;;;;;2.33;1.43;;;18.80;1.00;;;;;;4972116;28;20238;-61
2021/06/30 12:06:55;;;;;;;2.57;1.20;;;18.90;1.00;;;;;;4972927;28;20251;-61
2021/06/30 12:09:24;;;;;;;1.40;1.30;;;19.10;1.00;;;;;;4972442;28;20299;-61
2021/06/30 12:11:53;;;;;;;1.50;1.40;;;19.20;1.00;;;;;;4972862;28;20208;-62
2021/06/30 12:14:23;;;;;;;1.87;1.53;;;19.20;1.00;;;;;;4972459;28;20243;-64
2021/06/30 12:16:58;;;;;;;1.40;1.30;;;19.30;1.00;;;;;;4972357;28;20310;-65
2021/06/30 12:19:35;;;;;;;2.50;1.70;;;19.60;1.00;;;;;;4972508;28;20704;-66
2021/06/30 12:22:20;;;;;;;2.27;2.03;;;19.80;1.00;;;;;;4972500;28;20212;-65
2021/06/30 12:24:50;;;;;;;2.63;2.00;;;19.50;1.00;;;;;;4972241;28;20208;-66
2021/06/30 12:27:17;;;;;;;2.67;2.00;;;19.40;1.00;;;;;;4972678;28;20204;-65
2021/06/30 12:29:44;;;;;;;3.23;2.30;;;19.30;1.00;;;;;;4973414;28;20271;-65
2021/06/30 12:32:13;;;;;;;3.83;2.40;;;19.30;1.00;;;;;;4976194;28;20244;-65
2021/06/30 12:34:41;;;;;;;2.50;2.27;;;18.80;1.00;;;;;;4975711;28;20732;-64
2021/06/30 12:37:09;;;;;;;3.03;2.40;;;18.60;1.00;;;;;;4975851;28;20700;-66
2021/06/30 12:39:39;;;;;;;4.23;2.30;;;18.40;1.00;;;;;;4975793;28;20216;-64
2021/06/30 12:42:08;;;;;;;2.53;2.27;;;18.50;1.00;;;;;;4976042;28;20255;-65
2021/06/30 12:44:54;;;;;;;2.60;2.40;;;18.50;1.00;;;;;;4975618;28;20266;-61
2021/06/30 12:47:21;;;;;;;3.07;2.73;;;18.50;1.00;;;;;;4976281;28;20804;-61
2021/06/30 12:49:57;;;;;;;2.43;2.23;;;18.50;1.00;;;;;;4975811;28;20209;-60